createdAt,value
2023-04-27T00:00:16.510Z,9.92
2023-04-27T00:02:46.757Z,9.90
2023-04-27T00:05:15.279Z,9.91
2023-04-27T00:07:43.821Z,9.92
2023-04-27T00:10:12.493Z,9.92
2023-04-27T00:12:41.997Z,9.93
2023-04-27T00:15:13.215Z,9.92
2023-04-27T00:17:43.166Z,9.90
2023-04-27T00:20:15.839Z,9.89
2023-04-27T00:22:44.122Z,9.88
2023-04-27T00:25:15.181Z,9.89
2023-04-27T00:27:43.513Z,9.89
2023-04-27T00:30:15.183Z,9.91
2023-04-27T00:32:43.477Z,9.90
2023-04-27T00:35:13.473Z,9.89
2023-04-27T00:37:41.812Z,9.90
2023-04-27T00:40:11.971Z,9.89
2023-04-27T00:42:40.537Z,9.92
2023-04-27T00:45:13.497Z,9.93
2023-04-27T00:47:42.530Z,9.93
2023-04-27T00:50:16.323Z,9.92
2023-04-27T00:52:45.660Z,9.93
2023-04-27T00:55:13.919Z,9.92
2023-04-27T00:57:42.206Z,9.92
2023-04-27T01:00:11.807Z,9.95
2023-04-27T01:02:41.493Z,9.97
2023-04-27T01:05:10.748Z,9.97
2023-04-27T01:07:41.438Z,9.98
2023-04-27T01:10:11.134Z,9.97
2023-04-27T01:12:39.482Z,9.99
2023-04-27T01:15:09.687Z,9.97
2023-04-27T01:17:41.802Z,9.97
2023-04-27T01:20:11.533Z,9.97
2023-04-27T01:22:41.904Z,9.97
2023-04-27T01:25:14.483Z,9.96
2023-04-27T01:27:42.849Z,9.93
2023-04-27T01:30:11.574Z,9.95
2023-04-27T01:32:40.073Z,9.93
2023-04-27T01:35:12.081Z,9.92
2023-04-27T01:37:42.590Z,9.90
2023-04-27T01:40:14.259Z,9.92
2023-04-27T01:42:42.798Z,9.91
2023-04-27T01:45:12.824Z,9.85
2023-04-27T01:47:41.577Z,9.85
2023-04-27T01:50:10.798Z,9.85
2023-04-27T01:52:39.104Z,9.83
2023-04-27T01:55:08.933Z,9.81
2023-04-27T01:57:38.648Z,9.78
2023-04-27T02:00:11.769Z,9.74
2023-04-27T02:02:40.219Z,9.68
2023-04-27T02:05:14.617Z,9.67
2023-04-27T02:07:42.999Z,9.63
2023-04-27T02:10:14.280Z,9.62
2023-04-27T02:12:43.920Z,9.59
2023-04-27T02:15:12.238Z,9.56
2023-04-27T02:17:41.129Z,9.57
2023-04-27T02:20:11.029Z,9.55
2023-04-27T06:26:33.547Z,10.22
2023-04-27T06:29:03.794Z,10.35
2023-04-27T06:31:32.323Z,10.45
2023-04-27T06:34:00.777Z,10.54
2023-04-27T06:36:29.168Z,10.64
2023-04-27T06:38:58.097Z,10.74
2023-04-27T06:41:27.873Z,10.82
2023-04-27T06:43:58.962Z,10.89
2023-04-27T06:46:27.659Z,10.97
2023-04-27T06:48:56.061Z,11.07
2023-04-27T06:51:24.368Z,11.13
2023-04-27T06:53:55.025Z,11.22
2023-04-27T06:56:23.482Z,11.29
2023-04-27T06:58:51.846Z,11.37
2023-04-27T07:01:21.596Z,11.46
2023-04-27T07:03:50.069Z,11.54
2023-04-27T07:06:18.554Z,11.64
2023-04-27T07:08:46.892Z,11.73
2023-04-27T07:11:16.240Z,11.81
2023-04-27T07:13:44.626Z,11.91
2023-04-27T07:16:13.019Z,11.98
2023-04-27T07:18:43.573Z,12.07
2023-04-27T07:21:12.212Z,12.16
2023-04-27T07:23:41.180Z,12.24
2023-04-27T07:26:10.071Z,12.34
2023-04-27T07:28:38.447Z,12.41
2023-04-27T07:31:07.794Z,12.46
2023-04-27T07:33:36.951Z,12.57
2023-04-27T07:36:07.961Z,12.63
2023-04-27T07:38:38.454Z,12.72
2023-04-27T07:41:07.467Z,12.81
2023-04-27T07:43:35.954Z,12.89
2023-04-27T07:46:04.693Z,12.96
2023-04-27T07:48:33.252Z,13.03
2023-04-27T07:51:01.564Z,13.13
2023-04-27T07:53:31.225Z,13.22
2023-04-27T07:55:59.563Z,13.32
2023-04-27T07:58:27.960Z,13.40
2023-04-27T08:00:56.254Z,13.53
2023-04-27T08:03:24.993Z,13.64
2023-04-27T08:05:56.671Z,13.77
2023-04-27T08:08:25.086Z,13.89
2023-04-27T08:10:54.784Z,14.01
2023-04-27T08:13:24.862Z,14.11
2023-04-27T08:15:58.357Z,14.23
2023-04-27T08:18:27.262Z,14.33
2023-04-27T08:20:56.098Z,14.42
2023-04-27T08:23:24.415Z,14.52
2023-04-27T08:25:54.193Z,14.60
2023-04-27T08:28:23.288Z,14.71
2023-04-27T08:30:51.909Z,14.80
2023-04-27T08:33:20.241Z,14.88
2023-04-27T08:35:48.588Z,14.96
2023-04-27T08:38:16.937Z,15.03
2023-04-27T08:40:45.558Z,15.06
2023-04-27T08:43:15.708Z,15.18
2023-04-27T08:45:50.862Z,15.26
2023-04-27T08:48:20.238Z,15.31
2023-04-27T08:50:52.329Z,15.39
2023-04-27T08:53:22.292Z,15.43
2023-04-27T08:55:51.005Z,15.50
2023-04-27T08:58:20.852Z,15.53
2023-04-27T09:00:50.727Z,15.58
2023-04-27T09:03:24.742Z,15.63
2023-04-27T09:06:04.533Z,15.69
2023-04-27T09:08:44.135Z,15.75
2023-04-27T09:11:12.597Z,15.82
2023-04-27T09:13:45.538Z,15.88
2023-04-27T09:16:15.395Z,15.91
2023-04-27T09:18:45.221Z,15.98
2023-04-27T09:21:24.458Z,16.03
2023-04-27T09:23:53.164Z,16.10
2023-04-27T09:26:23.065Z,16.16
2023-04-27T09:28:55.841Z,16.21
2023-04-27T09:31:32.589Z,16.27
2023-04-27T09:34:01.217Z,16.31
2023-04-27T09:36:32.386Z,16.33
2023-04-27T09:39:04.648Z,16.38
2023-04-27T09:41:33.697Z,16.42
2023-04-27T09:44:04.261Z,16.47
2023-04-27T09:46:34.934Z,16.52
2023-04-27T09:49:06.606Z,16.57
2023-04-27T09:51:35.953Z,16.60
2023-04-27T09:54:06.130Z,16.62
2023-04-27T09:56:48.691Z,16.62
2023-04-27T09:59:47.822Z,16.69
2023-04-27T10:02:25.286Z,16.71
2023-04-27T10:05:33.631Z,16.74
2023-04-27T10:08:02.447Z,16.76
2023-04-27T10:10:31.229Z,16.81
2023-04-27T10:13:03.071Z,16.87
2023-04-27T10:15:41.178Z,16.93
2023-04-27T10:18:09.525Z,17.04
2023-04-27T10:20:38.992Z,17.12
2023-04-27T10:23:07.865Z,17.22
2023-04-27T10:25:41.414Z,17.29
2023-04-27T10:28:19.202Z,17.37
2023-04-27T10:30:50.978Z,17.49
2023-04-27T10:33:21.431Z,17.63
2023-04-27T10:35:58.223Z,17.74
2023-04-27T10:38:31.024Z,17.87
2023-04-27T10:41:01.927Z,17.99
2023-04-27T10:43:33.324Z,18.09
2023-04-27T10:46:14.057Z,18.21
2023-04-27T10:48:43.527Z,18.38
2023-04-27T10:51:16.668Z,18.53
2023-04-27T10:53:45.184Z,18.70
2023-04-27T10:56:13.495Z,18.85
2023-04-27T10:58:48.900Z,19.03
2023-04-27T11:01:26.973Z,19.25
2023-04-27T11:03:59.071Z,19.41
2023-04-27T11:06:28.777Z,19.54
2023-04-27T11:08:57.242Z,19.59
2023-04-27T11:11:26.386Z,19.75
2023-04-27T11:13:57.022Z,19.78
2023-04-27T11:16:26.856Z,19.77
2023-04-27T11:21:24.253Z,19.88
2023-04-27T11:23:52.595Z,19.93
2023-04-27T11:26:23.819Z,19.97
2023-04-27T11:29:02.081Z,20.08
2023-04-27T11:31:43.412Z,20.20
2023-04-27T11:34:19.332Z,20.33
2023-04-27T11:37:10.851Z,20.45
2023-04-27T11:39:48.024Z,20.62
2023-04-27T11:42:18.563Z,20.71
2023-04-27T11:44:54.643Z,20.82
2023-04-27T11:47:25.464Z,20.94
2023-04-27T11:49:56.823Z,21.07
2023-04-27T11:52:30.204Z,21.17
2023-04-27T11:55:00.369Z,21.27
2023-04-27T11:57:30.090Z,21.36
2023-04-27T12:00:00.571Z,21.43
2023-04-27T12:02:32.740Z,21.55
2023-04-27T12:05:01.799Z,21.59
2023-04-27T12:07:30.615Z,21.60
2023-04-27T12:10:00.748Z,21.66
2023-04-27T12:12:29.601Z,21.73
2023-04-27T12:14:58.774Z,21.81
2023-04-27T12:17:27.148Z,21.78
2023-04-27T12:19:56.939Z,21.87
2023-04-27T12:22:25.327Z,21.92
2023-04-27T12:24:53.711Z,22.00
2023-04-27T12:27:22.029Z,22.03
2023-04-27T12:29:50.484Z,22.08
2023-04-27T12:32:18.791Z,22.09
2023-04-27T12:34:47.502Z,22.11
2023-04-27T12:37:17.224Z,22.13
2023-04-27T12:39:45.629Z,22.17
2023-04-27T12:42:13.945Z,22.25
2023-04-27T12:44:42.536Z,22.22
2023-04-27T12:47:13.576Z,22.24
2023-04-27T12:49:48.540Z,22.27
2023-04-27T12:52:18.785Z,22.27
2023-04-27T12:54:47.510Z,22.27
2023-04-27T12:57:15.918Z,22.31
2023-04-27T12:59:45.114Z,22.32
2023-04-27T13:02:14.178Z,22.33
2023-04-27T13:04:42.710Z,22.32
2023-04-27T13:07:12.073Z,22.32
2023-04-27T13:09:41.850Z,22.28
2023-04-27T13:12:10.210Z,22.27
2023-04-27T13:14:41.468Z,22.33
2023-04-27T13:17:10.059Z,22.29
2023-04-27T13:19:38.471Z,22.26
2023-04-27T13:22:09.718Z,22.26
2023-04-27T13:24:38.132Z,22.27
2023-04-27T13:27:09.307Z,22.23
2023-04-27T13:29:38.308Z,22.17
2023-04-27T13:32:06.717Z,22.18
2023-04-27T13:34:35.869Z,22.16
2023-04-27T13:37:04.447Z,22.16
2023-04-27T13:39:33.093Z,22.14
2023-04-27T13:42:02.045Z,22.12
2023-04-27T13:44:35.202Z,22.12
2023-04-27T13:47:03.692Z,22.10
2023-04-27T13:49:32.064Z,22.09
2023-04-27T13:52:11.869Z,22.09
2023-04-27T13:54:40.140Z,22.07
2023-04-27T13:57:08.472Z,22.07
2023-04-27T13:59:38.198Z,22.08
2023-04-27T14:02:06.529Z,22.05
2023-04-27T14:04:34.932Z,22.05
2023-04-27T14:07:03.276Z,21.99
2023-04-27T14:09:31.746Z,21.99
2023-04-27T14:12:00.379Z,21.95
2023-04-27T14:14:29.173Z,21.93
2023-04-27T14:16:59.071Z,21.88
2023-04-27T14:19:27.577Z,21.84
2023-04-27T14:21:56.640Z,21.83
2023-04-27T14:24:25.054Z,21.79
2023-04-27T14:26:53.511Z,21.76
2023-04-27T14:29:21.983Z,21.76
2023-04-27T14:31:50.438Z,21.75
2023-04-27T14:34:21.616Z,21.75
2023-04-27T14:36:50.206Z,21.75
2023-04-27T14:39:18.676Z,21.75
2023-04-27T14:41:47.177Z,21.78
2023-04-27T14:44:15.583Z,21.77
2023-04-27T14:46:44.048Z,21.77
2023-04-27T14:49:12.692Z,21.79
2023-04-27T14:51:43.616Z,21.83
2023-04-27T14:54:12.212Z,21.87
2023-04-27T14:56:40.679Z,21.90
2023-04-27T14:59:09.089Z,21.93
2023-04-27T15:01:37.572Z,21.93
2023-04-27T15:04:06.556Z,21.98
2023-04-27T15:06:35.150Z,22.00
2023-04-27T15:09:05.182Z,21.97
2023-04-27T15:11:33.681Z,22.02
2023-04-27T15:14:02.141Z,22.01
2023-04-27T15:16:30.688Z,22.00
2023-04-27T15:18:59.226Z,21.99
2023-04-27T15:21:27.683Z,21.96
2023-04-27T15:23:56.095Z,21.93
2023-04-27T15:26:27.968Z,21.92
2023-04-27T15:28:58.250Z,21.91
2023-04-27T15:31:26.735Z,21.85
2023-04-27T15:33:55.306Z,21.80
2023-04-27T15:36:26.749Z,21.78
2023-04-27T15:38:55.377Z,21.74
2023-04-27T15:41:25.241Z,21.73
2023-04-27T15:43:54.154Z,21.71
2023-04-27T15:46:22.719Z,21.70
2023-04-27T15:48:51.189Z,21.67
2023-04-27T15:51:19.648Z,21.66
2023-04-27T15:53:48.089Z,21.63
2023-04-27T15:56:16.874Z,21.62
2023-04-27T15:58:46.994Z,21.64
2023-04-27T16:01:15.575Z,21.64
2023-04-27T16:03:44.222Z,21.63
2023-04-27T16:06:12.788Z,21.67
2023-04-27T16:08:41.205Z,21.70
2023-04-27T16:11:09.686Z,21.71
2023-04-27T16:13:38.134Z,21.73
2023-04-27T16:16:09.489Z,21.72
2023-04-27T16:18:38.822Z,21.73
2023-04-27T16:21:07.685Z,21.70
2023-04-27T16:23:36.174Z,21.70
2023-04-27T16:26:04.662Z,21.68
2023-04-27T16:28:33.289Z,21.66
2023-04-27T16:31:01.836Z,21.63
2023-04-27T16:33:31.855Z,21.60
2023-04-27T16:36:00.322Z,21.57
2023-04-27T16:38:28.782Z,21.55
2023-04-27T16:40:57.433Z,21.47
2023-04-27T16:43:26.171Z,21.44
2023-04-27T16:45:55.850Z,21.37
2023-04-27T16:48:24.348Z,21.31
2023-04-27T16:50:55.678Z,21.25
2023-04-27T16:53:27.181Z,21.16
2023-04-27T16:55:55.751Z,21.11
2023-04-27T16:58:24.244Z,21.06
2023-04-27T17:00:52.694Z,21.01
2023-04-27T17:03:21.302Z,20.97
2023-04-27T17:05:50.033Z,20.92
2023-04-27T17:08:20.012Z,20.85
2023-04-27T17:10:48.546Z,20.80
2023-04-27T17:13:18.605Z,20.72
2023-04-27T17:15:47.064Z,20.66
2023-04-27T17:18:15.406Z,20.58
2023-04-27T17:20:43.769Z,20.51
2023-04-27T17:23:12.294Z,20.44
2023-04-27T17:25:42.620Z,20.35
2023-04-27T17:28:10.939Z,20.28
2023-04-27T17:30:40.063Z,20.19
2023-04-27T17:33:08.412Z,20.12
2023-04-27T17:35:36.882Z,20.03
2023-04-27T17:38:05.309Z,19.98
2023-04-27T17:40:33.792Z,19.91
2023-04-27T17:43:03.519Z,19.84
2023-04-27T17:45:32.137Z,19.77
2023-04-27T17:48:00.648Z,19.70
2023-04-27T17:50:30.674Z,19.61
2023-04-27T17:52:59.120Z,19.53
2023-04-27T17:55:28.253Z,19.45
2023-04-27T17:57:56.734Z,19.37
2023-04-27T18:00:26.733Z,19.29
2023-04-27T18:02:55.566Z,19.19
2023-04-27T18:05:24.256Z,19.11
2023-04-27T18:07:52.663Z,19.05
2023-04-27T18:10:21.336Z,18.97
2023-04-27T18:12:49.713Z,18.88
2023-04-27T18:15:21.061Z,18.80
2023-04-27T18:17:51.080Z,18.69
2023-04-27T18:20:19.710Z,18.58
2023-04-27T18:22:48.238Z,18.50
2023-04-27T18:25:16.647Z,18.40
2023-04-27T18:27:45.430Z,18.31
2023-04-27T18:30:14.431Z,18.22
2023-04-27T18:32:43.241Z,18.13
2023-04-27T18:35:20.715Z,18.04
2023-04-27T18:37:50.082Z,17.89
2023-04-27T18:40:22.221Z,17.83
2023-04-27T18:42:51.695Z,17.73
2023-04-27T18:45:20.371Z,17.63
2023-04-27T18:47:48.824Z,17.55
2023-04-27T18:50:19.435Z,17.45
2023-04-27T18:52:48.226Z,17.34
2023-04-27T18:55:17.748Z,17.26
2023-04-27T18:57:46.452Z,17.17
2023-04-27T19:00:21.223Z,17.08
2023-04-27T19:02:51.957Z,16.99
2023-04-27T19:05:22.222Z,16.90
2023-04-27T19:07:50.700Z,16.82
2023-04-27T19:10:19.219Z,16.73
2023-04-27T19:12:47.760Z,16.64
2023-04-27T19:15:16.456Z,16.54
2023-04-27T19:17:45.938Z,16.48
2023-04-27T19:20:15.744Z,16.39
2023-04-27T19:22:45.682Z,16.30
2023-04-27T19:25:14.283Z,16.26
2023-04-27T19:27:42.915Z,16.20
2023-04-27T19:30:14.720Z,16.14
2023-04-27T19:32:43.708Z,16.08
2023-04-27T19:35:12.986Z,16.02
2023-04-27T19:37:41.646Z,15.96
2023-04-27T19:40:15.535Z,15.88
2023-04-27T19:42:44.214Z,15.82
2023-04-27T19:45:13.302Z,15.73
2023-04-27T19:47:42.090Z,15.70
2023-04-27T19:50:12.938Z,15.62
2023-04-27T19:52:41.458Z,15.50
2023-04-27T19:55:10.878Z,15.49
2023-04-27T19:57:40.597Z,15.46
2023-04-27T20:00:12.073Z,15.40
2023-04-27T20:02:40.725Z,15.37
2023-04-27T20:05:09.776Z,15.33
2023-04-27T20:07:38.308Z,15.31
2023-04-27T20:10:08.034Z,15.27
2023-04-27T20:15:11.960Z,15.20
2023-04-27T20:17:40.729Z,15.15
2023-04-27T20:20:11.047Z,15.11
2023-04-27T20:22:39.820Z,15.04
2023-04-27T20:25:09.358Z,14.99
2023-04-27T20:27:37.718Z,14.96
2023-04-27T20:30:09.168Z,14.91
2023-04-27T20:32:39.531Z,14.87
2023-04-27T20:35:11.545Z,14.83
2023-04-27T20:37:41.925Z,14.79
2023-04-27T20:40:19.180Z,14.71
2023-04-27T20:42:49.470Z,14.72
2023-04-27T20:45:19.657Z,14.67
2023-04-27T20:47:48.101Z,14.64
2023-04-27T20:50:29.396Z,14.60
2023-04-27T20:52:57.832Z,14.57
2023-04-27T20:55:26.251Z,14.53
2023-04-27T20:57:55.131Z,14.49
2023-04-27T21:00:25.080Z,14.45
2023-04-27T21:02:53.524Z,14.39
2023-04-27T21:05:22.211Z,14.41
2023-04-27T21:07:50.688Z,14.35
2023-04-27T21:10:23.823Z,14.31
2023-04-27T21:15:20.790Z,14.23
2023-04-27T21:17:50.646Z,14.19
2023-04-27T21:20:19.274Z,14.14
2023-04-27T21:22:47.622Z,14.07
2023-04-27T21:25:16.163Z,14.06
2023-04-27T21:27:44.690Z,14.03
2023-04-27T21:30:13.773Z,13.97
2023-04-27T21:32:42.116Z,13.96
2023-04-27T21:35:12.254Z,13.92
2023-04-27T21:37:40.611Z,13.88
2023-04-27T21:40:13.040Z,13.83
2023-04-27T21:42:41.890Z,13.79
2023-04-27T21:45:11.661Z,13.77
2023-04-27T21:47:40.010Z,13.73
2023-04-27T21:50:11.604Z,13.70
2023-04-27T21:52:40.069Z,13.69
2023-04-27T21:55:09.319Z,13.66
2023-04-27T21:57:37.856Z,13.62
2023-04-27T22:00:14.619Z,13.58
2023-04-27T22:02:43.427Z,13.56
2023-04-27T22:05:14.060Z,13.55
2023-04-27T22:07:43.099Z,13.54
2023-04-27T22:10:23.583Z,13.52
2023-04-27T22:12:52.064Z,13.47
2023-04-27T22:15:21.242Z,13.46
2023-04-27T22:17:49.904Z,13.41
2023-04-27T22:20:23.537Z,13.39
2023-04-27T22:22:51.874Z,13.37
2023-04-27T22:25:24.248Z,13.33
2023-04-27T22:27:52.608Z,13.32
2023-04-27T22:30:21.022Z,13.28
2023-04-27T22:32:52.590Z,13.25
2023-04-27T22:35:26.956Z,13.22
2023-04-27T22:37:56.428Z,13.20
2023-04-27T22:40:27.351Z,13.17
2023-04-27T22:42:56.587Z,13.13
2023-04-27T22:45:25.256Z,13.10
2023-04-27T22:47:53.875Z,13.08
2023-04-27T22:50:23.809Z,13.06
2023-04-27T22:52:57.130Z,13.04
2023-04-27T22:55:28.478Z,13.00
2023-04-27T22:57:56.771Z,12.98
2023-04-27T23:00:27.852Z,12.95
2023-04-27T23:02:56.317Z,12.94
2023-04-27T23:05:26.628Z,12.90
2023-04-27T23:07:55.003Z,12.89
2023-04-27T23:10:23.437Z,12.81
2023-04-27T23:12:54.723Z,12.84
2023-04-27T23:15:23.981Z,12.78
2023-04-27T23:17:52.413Z,12.77
2023-04-27T23:20:28.151Z,12.72
2023-04-27T23:23:01.292Z,12.69
2023-04-27T23:25:29.666Z,12.68
2023-04-27T23:27:57.978Z,12.66
2023-04-27T23:30:33.492Z,12.64
2023-04-27T23:33:01.898Z,12.60
2023-04-27T23:35:31.650Z,12.57
2023-04-27T23:38:01.317Z,12.52
2023-04-27T23:40:29.659Z,12.49
2023-04-27T23:42:57.957Z,12.44
2023-04-27T23:45:26.409Z,12.43
2023-04-27T23:47:54.812Z,12.41
2023-04-27T23:50:23.156Z,12.39
2023-04-27T23:52:51.445Z,12.33
2023-04-27T23:55:23.130Z,12.34
2023-04-27T23:57:52.896Z,12.32
